Time;durP1;ratioP1;P1;durP2;ratioP2;P2;SDS_P1;SDS_P2;PMS_P1;PMS_P2;Temp;Humidity;BMP_temperature;BMP_pressure;BME280_temperature;BME280_humidity;BME280_pressure;Samples;Min_cycle;Max_cycle;Signal;HPM_P1;HPM_P2
2022/07/16 00:02:33;;;;;;;1.25;1.15;;;27.10;96.70;;;;;;4867869;29;20096;-75
2022/07/16 00:05:06;;;;;;;2.05;1.40;;;27.00;96.70;;;;;;4873415;29;20136;-76
2022/07/16 00:07:35;;;;;;;4.82;1.60;;;26.90;96.70;;;;;;4868889;29;20546;-75
2022/07/16 00:10:06;;;;;;;4.63;1.55;;;26.90;96.70;;;;;;4888389;29;20132;-76
2022/07/16 00:12:34;;;;;;;4.35;1.23;;;26.70;96.70;;;;;;4872026;29;20511;-75
2022/07/16 00:15:03;;;;;;;5.65;1.13;;;26.50;96.70;;;;;;4873077;29;20404;-76
2022/07/16 00:17:31;;;;;;;1.90;1.20;;;26.40;96.70;;;;;;4875180;29;20052;-75
2022/07/16 00:19:59;;;;;;;2.05;1.35;;;26.50;96.70;;;;;;4873894;29;20056;-75
2022/07/16 00:22:28;;;;;;;2.78;1.30;;;26.60;96.70;;;;;;4871845;29;20144;-76
2022/07/16 00:24:56;;;;;;;3.05;1.40;;;26.60;96.70;;;;;;4872698;29;20049;-75
2022/07/16 00:27:25;;;;;;;2.55;1.10;;;26.50;96.70;;;;;;4888234;29;20075;-76
2022/07/16 00:29:54;;;;;;;2.85;1.00;;;26.50;96.70;;;;;;4872335;29;20113;-76
2022/07/16 00:32:22;;;;;;;3.75;1.30;;;26.40;96.70;;;;;;4873539;29;20052;-76
2022/07/16 00:34:50;;;;;;;3.47;1.75;;;26.40;96.70;;;;;;4887148;29;21520;-76
2022/07/16 00:37:18;;;;;;;3.38;1.52;;;26.30;96.70;;;;;;4873688;29;20415;-76
2022/07/16 00:39:46;;;;;;;2.00;1.20;;;26.30;96.70;;;;;;4873126;29;20051;-76
2022/07/16 00:42:14;;;;;;;2.85;1.17;;;26.40;96.70;;;;;;4868652;29;20076;-76
2022/07/16 00:44:44;;;;;;;2.15;1.02;;;26.40;96.70;;;;;;4870674;29;20068;-75
2022/07/16 00:47:12;;;;;;;4.18;1.70;;;26.40;96.70;;;;;;4868190;29;20061;-76
2022/07/16 00:49:40;;;;;;;2.10;1.40;;;26.40;96.70;;;;;;4872433;29;20055;-75
2022/07/16 00:52:08;;;;;;;2.85;1.10;;;26.40;96.70;;;;;;4872113;29;20064;-76
2022/07/16 00:54:36;;;;;;;3.03;1.52;;;26.30;96.70;;;;;;4871490;29;20139;-75
2022/07/16 00:57:05;;;;;;;1.65;1.10;;;26.30;96.70;;;;;;4871565;29;20045;-75
2022/07/16 00:59:33;;;;;;;1.90;1.23;;;26.20;96.70;;;;;;4886249;29;20143;-76
2022/07/16 01:02:02;;;;;;;1.77;1.17;;;26.20;96.70;;;;;;4872158;29;20123;-76
2022/07/16 01:04:31;;;;;;;1.15;0.93;;;26.20;96.70;;;;;;4871094;29;20084;-76
2022/07/16 01:07:00;;;;;;;1.80;1.10;;;26.20;96.70;;;;;;4873282;29;20049;-76
2022/07/16 01:09:30;;;;;;;2.03;1.08;;;26.20;96.70;;;;;;4871366;29;20080;-75
2022/07/16 01:11:58;;;;;;;3.97;1.50;;;26.20;96.70;;;;;;4871635;29;20049;-76
2022/07/16 01:14:27;;;;;;;2.78;1.02;;;26.10;96.70;;;;;;4856007;29;20053;-76
2022/07/16 01:16:55;;;;;;;3.20;1.27;;;26.10;96.70;;;;;;4872178;29;20063;-76
2022/07/16 01:19:25;;;;;;;3.05;1.02;;;26.10;96.70;;;;;;4883823;29;20067;-76
2022/07/16 01:21:53;;;;;;;2.35;1.10;;;26.10;96.70;;;;;;4872501;29;20055;-76
2022/07/16 01:24:22;;;;;;;6.63;1.67;;;26.20;96.70;;;;;;4874515;29;20144;-76
2022/07/16 01:26:50;;;;;;;2.35;1.48;;;26.10;96.70;;;;;;4873474;29;20044;-76
2022/07/16 01:29:18;;;;;;;3.15;1.05;;;26.00;96.70;;;;;;4870241;29;20117;-75
2022/07/16 01:31:46;;;;;;;1.30;1.20;;;26.10;96.70;;;;;;4872697;29;20040;-76
2022/07/16 01:34:26;;;;;;;3.15;1.33;;;26.00;96.70;;;;;;4889179;29;20518;-76
2022/07/16 01:36:56;;;;;;;3.22;1.15;;;25.80;96.70;;;;;;4853115;29;20057;-75
2022/07/16 01:39:26;;;;;;;2.75;1.38;;;25.80;96.70;;;;;;4855214;29;20122;-76
2022/07/16 01:41:55;;;;;;;1.50;1.25;;;25.90;96.70;;;;;;4870157;29;20053;-75
2022/07/16 01:44:24;;;;;;;3.25;1.58;;;25.90;96.70;;;;;;4873185;29;20049;-75
2022/07/16 01:46:53;;;;;;;3.05;1.27;;;25.90;96.70;;;;;;4870520;29;20045;-76
2022/07/16 01:49:21;;;;;;;3.88;1.38;;;25.80;96.70;;;;;;4869181;29;20044;-76
2022/07/16 01:51:49;;;;;;;4.65;1.55;;;25.80;96.70;;;;;;4871740;29;20049;-75
2022/07/16 01:54:18;;;;;;;2.00;1.40;;;25.80;96.70;;;;;;4875437;29;20056;-75
2022/07/16 01:56:49;;;;;;;1.90;1.30;;;25.60;96.70;;;;;;4869921;29;20564;-75
2022/07/16 01:59:17;;;;;;;2.05;1.45;;;25.70;96.70;;;;;;4871167;29;20075;-75
2022/07/16 02:01:45;;;;;;;2.72;1.63;;;25.70;96.70;;;;;;4869869;29;20056;-75
2022/07/16 02:04:13;;;;;;;2.13;1.30;;;25.70;96.70;;;;;;4869922;29;20056;-75
2022/07/16 02:06:41;;;;;;;2.28;1.40;;;25.60;96.70;;;;;;4870197;29;20104;-76
2022/07/16 02:09:09;;;;;;;4.45;1.58;;;25.50;96.70;;;;;;4855164;29;20667;-75
2022/07/16 02:11:37;;;;;;;3.60;1.40;;;25.30;96.70;;;;;;4867800;29;20041;-75
2022/07/16 02:14:07;;;;;;;3.10;1.40;;;25.30;96.70;;;;;;4872096;29;20056;-75
2022/07/16 02:16:36;;;;;;;3.92;1.50;;;25.10;96.70;;;;;;4870376;29;20097;-75
2022/07/16 02:19:05;;;;;;;4.05;1.60;;;25.00;96.70;;;;;;4852328;29;20053;-74
2022/07/16 02:21:33;;;;;;;4.22;1.55;;;25.00;96.70;;;;;;4853141;29;20059;-75
2022/07/16 02:24:02;;;;;;;4.95;1.60;;;25.00;96.70;;;;;;4871753;29;20230;-75
2022/07/16 02:26:29;;;;;;;2.78;1.83;;;25.00;96.70;;;;;;4868911;29;20390;-75
2022/07/16 02:28:57;;;;;;;3.35;1.50;;;25.00;96.70;;;;;;4852319;29;20069;-75
2022/07/16 02:31:39;;;;;;;1.85;1.23;;;24.90;96.70;;;;;;4884168;29;20075;-75
2022/07/16 02:34:07;;;;;;;1.80;1.42;;;25.00;96.70;;;;;;4869470;29;20530;-75
2022/07/16 02:36:35;;;;;;;4.43;1.50;;;25.10;96.70;;;;;;4869716;29;20110;-75
2022/07/16 02:39:03;;;;;;;2.38;1.80;;;25.00;96.70;;;;;;4870119;29;20049;-76
2022/07/16 02:41:31;;;;;;;3.35;1.58;;;25.00;96.70;;;;;;4861424;29;20596;-75
2022/07/16 02:43:59;;;;;;;2.55;1.30;;;25.10;96.70;;;;;;4869713;29;20052;-75
2022/07/16 02:46:27;;;;;;;2.00;1.30;;;25.20;96.70;;;;;;4882106;29;20053;-75
2022/07/16 02:48:56;;;;;;;4.90;1.48;;;25.10;96.70;;;;;;4870353;29;20052;-75
2022/07/16 02:51:24;;;;;;;3.00;1.42;;;25.00;96.70;;;;;;4868977;29;20049;-76
2022/07/16 02:53:52;;;;;;;3.25;1.40;;;25.00;96.70;;;;;;4870170;29;20055;-75
2022/07/16 02:56:20;;;;;;;2.20;1.30;;;25.00;96.70;;;;;;4884427;29;20088;-75
2022/07/16 02:58:48;;;;;;;2.80;1.25;;;25.00;96.70;;;;;;4853740;29;20067;-76
2022/07/16 03:01:16;;;;;;;3.40;1.42;;;25.00;96.70;;;;;;4871373;29;20512;-75
2022/07/16 03:03:44;;;;;;;3.92;1.30;;;24.90;96.70;;;;;;4870323;29;20040;-75
2022/07/16 03:06:13;;;;;;;3.05;1.38;;;25.10;96.70;;;;;;4869863;29;20057;-75
2022/07/16 03:08:41;;;;;;;3.45;2.10;;;25.00;96.70;;;;;;4870641;29;20041;-75
2022/07/16 03:11:09;;;;;;;4.20;1.67;;;24.90;96.70;;;;;;4885000;29;20053;-74
2022/07/16 03:13:37;;;;;;;2.95;1.40;;;25.00;96.70;;;;;;4869383;29;20132;-75
2022/07/16 03:16:05;;;;;;;2.35;1.55;;;25.00;96.70;;;;;;4885167;29;20037;-75
2022/07/16 03:18:33;;;;;;;2.45;1.42;;;24.90;96.70;;;;;;4870550;29;20053;-75
2022/07/16 03:21:01;;;;;;;4.78;1.67;;;24.80;96.70;;;;;;4871137;29;20048;-75
2022/07/16 03:23:30;;;;;;;1.63;1.52;;;24.90;96.70;;;;;;4867832;29;20054;-75
2022/07/16 03:25:58;;;;;;;2.03;1.27;;;25.00;96.70;;;;;;4883893;29;20555;-75
2022/07/16 03:28:26;;;;;;;2.80;1.73;;;25.10;96.70;;;;;;4881595;29;20054;-75
2022/07/16 03:30:54;;;;;;;5.57;1.20;;;25.10;96.70;;;;;;4869989;29;20045;-75
2022/07/16 03:33:22;;;;;;;3.17;1.27;;;25.10;96.70;;;;;;4867526;29;20489;-75
2022/07/16 03:35:50;;;;;;;3.13;1.70;;;25.00;96.70;;;;;;4869058;29;20037;-75
2022/07/16 03:41:05;;;;;;;3.35;1.50;;;24.80;96.70;;;;;;4866783;29;20072;-75
2022/07/16 03:43:33;;;;;;;4.05;1.30;;;24.60;96.70;;;;;;4868363;29;20097;-75
2022/07/16 03:46:01;;;;;;;4.22;1.60;;;24.70;96.70;;;;;;4871428;29;20049;-75
2022/07/16 03:48:29;;;;;;;3.90;1.50;;;24.80;96.70;;;;;;4870353;29;20041;-76
2022/07/16 03:50:57;;;;;;;2.80;1.50;;;24.80;96.70;;;;;;4871079;29;20045;-75
2022/07/16 03:53:25;;;;;;;3.42;1.20;;;24.80;96.70;;;;;;4869054;29;20052;-76
2022/07/16 03:55:53;;;;;;;3.05;1.30;;;24.80;96.70;;;;;;4869422;29;20786;-75
2022/07/16 03:58:22;;;;;;;2.45;1.42;;;24.70;96.70;;;;;;4854588;29;20049;-76
2022/07/16 04:00:50;;;;;;;3.42;1.60;;;24.80;96.70;;;;;;4869403;29;20121;-75
2022/07/16 04:03:17;;;;;;;3.60;1.50;;;24.70;96.70;;;;;;4869385;29;20500;-75
2022/07/16 04:05:46;;;;;;;1.65;1.25;;;24.70;96.70;;;;;;4870316;29;20076;-75
2022/07/16 04:08:14;;;;;;;3.28;1.50;;;24.70;96.70;;;;;;4866780;29;20045;-76
2022/07/16 04:10:42;;;;;;;1.90;1.50;;;24.70;96.70;;;;;;4868848;29;20049;-75
2022/07/16 04:13:10;;;;;;;1.65;1.40;;;24.70;96.70;;;;;;4869463;29;20053;-75
2022/07/16 04:15:39;;;;;;;3.13;1.75;;;24.80;96.70;;;;;;4870911;29;20445;-75
2022/07/16 04:18:07;;;;;;;2.55;1.60;;;24.70;96.70;;;;;;4869930;29;20049;-75
2022/07/16 04:20:35;;;;;;;2.67;1.52;;;24.70;96.70;;;;;;4868532;29;20056;-75
2022/07/16 04:23:03;;;;;;;4.40;1.70;;;24.70;96.70;;;;;;4869392;29;20071;-75
2022/07/16 04:25:31;;;;;;;3.03;1.40;;;24.70;96.70;;;;;;4868253;29;20739;-75
2022/07/16 04:27:59;;;;;;;2.30;1.77;;;24.60;96.70;;;;;;4870264;29;20053;-75
2022/07/16 04:30:27;;;;;;;2.35;1.50;;;24.70;96.70;;;;;;4870146;29;20101;-75
2022/07/16 04:32:56;;;;;;;1.73;1.52;;;24.60;96.70;;;;;;4870184;29;20124;-75
2022/07/16 04:35:24;;;;;;;2.05;1.55;;;24.60;96.70;;;;;;4865757;29;20472;-75
2022/07/16 04:37:52;;;;;;;3.55;1.48;;;24.50;96.70;;;;;;4854296;29;20480;-75
2022/07/16 04:40:20;;;;;;;9.18;2.03;;;24.40;96.70;;;;;;4868093;29;20920;-74
2022/07/16 04:42:48;;;;;;;2.35;1.50;;;24.30;96.70;;;;;;4869776;29;20053;-75
2022/07/16 04:45:16;;;;;;;3.53;1.25;;;24.30;96.70;;;;;;4869626;29;20044;-75
2022/07/16 04:47:44;;;;;;;2.13;1.40;;;24.30;96.70;;;;;;4868765;29;20064;-75
2022/07/16 04:50:13;;;;;;;3.05;1.60;;;24.50;96.70;;;;;;4871544;29;20633;-75
2022/07/16 04:52:41;;;;;;;2.42;1.58;;;24.60;96.70;;;;;;4872184;29;20057;-75
2022/07/16 04:55:09;;;;;;;2.97;1.50;;;24.50;96.70;;;;;;4861015;29;20697;-74
2022/07/16 04:57:37;;;;;;;4.65;1.58;;;24.40;96.70;;;;;;4869670;29;20041;-75
2022/07/16 05:00:06;;;;;;;3.60;1.58;;;24.40;96.70;;;;;;4871675;29;20090;-74
2022/07/16 05:05:22;;;;;;;4.30;1.85;;;24.30;96.70;;;;;;4870794;29;20057;-75
2022/07/16 05:07:50;;;;;;;4.80;1.73;;;24.30;96.70;;;;;;4879924;29;20061;-75
2022/07/16 05:10:18;;;;;;;5.07;1.70;;;24.40;96.70;;;;;;4872426;29;20045;-74
2022/07/16 05:12:46;;;;;;;2.25;1.85;;;24.30;96.70;;;;;;4871528;29;20045;-75
2022/07/16 05:15:14;;;;;;;2.75;1.50;;;24.40;96.70;;;;;;4851962;29;20134;-75
2022/07/16 05:17:42;;;;;;;4.20;1.65;;;24.30;96.70;;;;;;4867191;29;21487;-75
2022/07/16 05:20:10;;;;;;;2.88;1.60;;;24.40;96.70;;;;;;4872834;29;20132;-74
2022/07/16 05:22:40;;;;;;;5.25;1.88;;;24.40;96.70;;;;;;4874997;29;20136;-75
2022/07/16 05:25:10;;;;;;;3.13;1.70;;;24.40;96.70;;;;;;4871709;29;20850;-75
2022/07/16 05:27:38;;;;;;;2.53;1.70;;;24.40;96.70;;;;;;4867624;29;20056;-75
2022/07/16 05:30:09;;;;;;;4.82;1.75;;;24.40;96.70;;;;;;4872599;29;20052;-75
2022/07/16 05:32:40;;;;;;;2.58;1.70;;;24.50;96.70;;;;;;4872563;29;20053;-75
2022/07/16 05:35:11;;;;;;;3.72;1.75;;;24.60;96.70;;;;;;4871390;29;20055;-74
2022/07/16 05:37:41;;;;;;;4.82;2.05;;;24.70;96.70;;;;;;4872245;29;20041;-75
2022/07/16 05:40:11;;;;;;;5.15;1.88;;;24.80;96.70;;;;;;4871392;29;20120;-75
2022/07/16 05:42:39;;;;;;;2.58;1.90;;;24.90;96.70;;;;;;4872150;29;20120;-75
2022/07/16 05:45:15;;;;;;;2.20;1.45;;;25.00;96.70;;;;;;4870927;29;20076;-76
2022/07/16 05:47:43;;;;;;;3.25;1.65;;;25.00;96.70;;;;;;4872338;29;20123;-76
2022/07/16 05:50:11;;;;;;;2.67;2.00;;;25.00;96.70;;;;;;4886915;29;20136;-76
2022/07/16 05:52:40;;;;;;;3.78;1.60;;;25.00;96.70;;;;;;4870981;29;20041;-75
2022/07/16 05:55:09;;;;;;;2.22;1.80;;;25.00;96.70;;;;;;4855792;29;20068;-75
2022/07/16 05:57:37;;;;;;;4.38;1.95;;;25.00;96.70;;;;;;4872694;29;20048;-75
2022/07/16 06:00:10;;;;;;;5.15;2.00;;;25.00;96.70;;;;;;4872065;29;20041;-75
2022/07/16 06:02:42;;;;;;;4.78;2.00;;;25.00;96.70;;;;;;4870915;29;20136;-75
2022/07/16 06:05:11;;;;;;;2.63;1.50;;;25.10;96.70;;;;;;4870794;29;20056;-74
2022/07/16 06:07:40;;;;;;;2.40;1.45;;;25.20;96.70;;;;;;4883836;29;20064;-75
2022/07/16 06:10:09;;;;;;;2.08;1.70;;;25.30;96.70;;;;;;4867592;29;20145;-75
2022/07/16 06:12:37;;;;;;;1.65;1.40;;;25.30;96.70;;;;;;4869031;29;20412;-76
2022/07/16 06:15:06;;;;;;;4.38;1.75;;;25.50;96.70;;;;;;4853651;29;20049;-75
2022/07/16 06:17:34;;;;;;;3.15;1.75;;;25.50;96.70;;;;;;4869938;29;20057;-75
2022/07/16 06:20:04;;;;;;;2.40;1.58;;;25.50;96.70;;;;;;4855326;29;20488;-75
2022/07/16 06:22:33;;;;;;;3.45;1.67;;;25.60;96.70;;;;;;4869686;29;20053;-75
2022/07/16 06:25:02;;;;;;;3.97;1.95;;;25.60;96.70;;;;;;4870738;29;20072;-74
2022/07/16 06:27:30;;;;;;;5.65;1.90;;;25.70;96.70;;;;;;4869342;29;20500;-78
2022/07/16 06:30:02;;;;;;;3.03;1.88;;;25.80;96.70;;;;;;4872713;29;20405;-78
2022/07/16 06:32:31;;;;;;;2.70;1.80;;;25.90;96.70;;;;;;4870566;29;20051;-78
2022/07/16 06:34:59;;;;;;;4.15;2.00;;;26.00;96.70;;;;;;4870646;29;20866;-78
2022/07/16 06:37:27;;;;;;;4.38;1.73;;;26.00;96.70;;;;;;4868912;29;20045;-79
2022/07/16 06:39:55;;;;;;;4.70;2.30;;;26.00;96.70;;;;;;4871981;29;20611;-78
2022/07/16 06:42:24;;;;;;;4.93;1.95;;;26.00;96.70;;;;;;4870966;29;20048;-78
2022/07/16 06:44:53;;;;;;;3.75;1.85;;;26.20;96.70;;;;;;4866620;29;20136;-78
2022/07/16 06:47:21;;;;;;;3.53;1.52;;;26.20;96.70;;;;;;4870721;29;20131;-79
2022/07/16 06:49:49;;;;;;;4.75;1.63;;;26.20;96.70;;;;;;4878126;29;20675;-78
2022/07/16 06:52:17;;;;;;;3.63;1.90;;;26.40;96.70;;;;;;4871545;29;20117;-79
2022/07/16 06:54:45;;;;;;;3.05;1.98;;;26.40;96.70;;;;;;4888381;29;20041;-87
2022/07/16 06:57:13;;;;;;;4.43;1.70;;;26.50;96.70;;;;;;4877006;29;20045;-88
2022/07/16 06:59:43;;;;;;;2.45;2.10;;;26.60;96.70;;;;;;4875763;29;20721;-90
2022/07/16 07:02:13;;;;;;;4.82;2.00;;;26.60;96.70;;;;;;4874162;29;20045;-87
2022/07/16 07:04:41;;;;;;;2.97;2.13;;;26.60;96.70;;;;;;4874249;29;20508;-89
2022/07/16 07:07:10;;;;;;;2.47;1.73;;;26.70;96.70;;;;;;4873687;29;20049;-82
2022/07/16 07:09:38;;;;;;;3.15;1.70;;;26.70;96.70;;;;;;4875116;29;20068;-82
2022/07/16 07:12:06;;;;;;;6.50;1.70;;;26.80;96.70;;;;;;4872180;29;20049;-80
2022/07/16 07:14:33;;;;;;;9.88;2.40;;;26.80;96.70;;;;;;4869315;29;20056;-81
2022/07/16 07:17:03;;;;;;;6.60;1.98;;;26.90;96.70;;;;;;4873297;29;20048;-85
2022/07/16 07:19:31;;;;;;;5.18;1.85;;;26.90;96.70;;;;;;4873617;29;20045;-84
2022/07/16 07:21:59;;;;;;;3.78;2.40;;;26.90;96.70;;;;;;4878452;29;20045;-84
2022/07/16 07:24:28;;;;;;;4.95;2.25;;;27.00;96.70;;;;;;4872234;29;20744;-82
2022/07/16 07:27:14;;;;;;;5.82;1.98;;;27.10;96.70;;;;;;4875104;29;20060;-81
2022/07/16 07:29:42;;;;;;;4.88;1.98;;;27.20;96.70;;;;;;4875531;29;20077;-81
2022/07/16 07:32:13;;;;;;;2.63;1.70;;;27.20;96.70;;;;;;4871756;29;20052;-80
2022/07/16 07:34:41;;;;;;;4.72;2.22;;;27.30;96.70;;;;;;4872586;29;20140;-83
2022/07/16 07:37:09;;;;;;;3.70;1.60;;;27.30;96.70;;;;;;4874281;29;20437;-82
2022/07/16 07:39:37;;;;;;;4.55;1.60;;;27.40;96.70;;;;;;4872622;29;20571;-82
2022/07/16 07:42:05;;;;;;;4.00;1.95;;;27.50;96.70;;;;;;4870539;29;20453;-80
2022/07/16 07:44:33;;;;;;;3.58;1.90;;;27.50;96.70;;;;;;4885134;29;20052;-79
2022/07/16 07:47:01;;;;;;;3.47;1.75;;;27.50;96.70;;;;;;4870843;29;20052;-77
2022/07/16 07:49:31;;;;;;;5.90;2.00;;;27.50;96.70;;;;;;4870430;29;20057;-77
2022/07/16 07:51:59;;;;;;;4.00;1.90;;;27.60;96.70;;;;;;4870172;29;20048;-77
2022/07/16 07:54:27;;;;;;;3.00;1.70;;;27.60;96.70;;;;;;4869189;29;20068;-76
2022/07/16 07:56:55;;;;;;;4.15;1.63;;;27.60;96.70;;;;;;4867515;29;20042;-78
2022/07/16 07:59:23;;;;;;;4.47;1.70;;;27.70;96.70;;;;;;4869300;29;20060;-77
2022/07/16 08:01:51;;;;;;;2.33;1.70;;;27.70;96.70;;;;;;4853122;29;20391;-76
2022/07/16 08:04:19;;;;;;;2.97;1.65;;;27.80;96.70;;;;;;4869936;29;20057;-76
2022/07/16 08:06:49;;;;;;;3.20;1.42;;;27.90;96.70;;;;;;4883276;29;20084;-76
2022/07/16 08:09:18;;;;;;;5.00;1.73;;;28.00;96.70;;;;;;4870656;29;20055;-77
2022/07/16 08:11:46;;;;;;;2.45;1.52;;;28.00;96.70;;;;;;4869480;29;20049;-76
2022/07/16 08:14:14;;;;;;;6.03;1.40;;;28.00;96.70;;;;;;4870284;29;20083;-75
2022/07/16 08:16:58;;;;;;;4.20;1.70;;;28.10;96.70;;;;;;4868775;29;20048;-75
2022/07/16 08:19:26;;;;;;;4.40;1.50;;;28.20;96.70;;;;;;4868982;29;20508;-77
2022/07/16 08:21:56;;;;;;;2.33;1.45;;;28.30;96.70;;;;;;4870854;29;20071;-80
2022/07/16 08:27:11;;;;;;;3.58;1.52;;;28.30;96.70;;;;;;4874131;29;20063;-79
2022/07/16 08:29:39;;;;;;;5.20;1.35;;;28.40;96.70;;;;;;4875784;29;20572;-81
2022/07/16 08:32:08;;;;;;;2.95;1.70;;;28.40;96.70;;;;;;4875024;29;20148;-82
2022/07/16 08:34:36;;;;;;;2.17;1.35;;;28.50;96.70;;;;;;4877783;29;20060;-85
2022/07/16 08:37:08;;;;;;;2.13;1.40;;;28.50;96.70;;;;;;4876107;29;20056;-86
2022/07/16 08:39:39;;;;;;;3.90;1.30;;;28.60;96.70;;;;;;4877273;29;20496;-80
2022/07/16 08:42:10;;;;;;;46.53;5.72;;;28.70;96.70;;;;;;4873895;29;20045;-80
2022/07/16 08:44:40;;;;;;;26.88;2.90;;;28.80;96.70;;;;;;4859175;29;20059;-82
2022/07/16 08:47:13;;;;;;;25.45;2.95;;;28.90;96.70;;;;;;4875254;29;20511;-79
2022/07/16 08:49:44;;;;;;;30.48;4.18;;;29.00;96.70;;;;;;4859017;29;20057;-83
2022/07/16 08:52:14;;;;;;;14.30;2.88;;;29.10;96.70;;;;;;4891762;29;20049;-85
2022/07/16 08:54:45;;;;;;;9.95;1.83;;;29.20;96.70;;;;;;4875793;29;20107;-84
2022/07/16 08:57:20;;;;;;;5.85;1.52;;;29.20;96.70;;;;;;4849017;29;20112;-84
2022/07/16 08:59:49;;;;;;;3.78;1.48;;;29.30;96.70;;;;;;4876372;29;20045;-88
2022/07/16 09:02:18;;;;;;;2.83;1.65;;;29.50;96.70;;;;;;4876009;29;20075;-84
2022/07/16 09:04:46;;;;;;;4.95;1.50;;;29.60;96.70;;;;;;4857017;29;20050;-84
2022/07/16 09:07:17;;;;;;;11.68;2.30;;;29.70;96.70;;;;;;4872398;29;20059;-83
2022/07/16 09:09:46;;;;;;;4.70;1.73;;;29.80;96.70;;;;;;4874725;29;20052;-82
2022/07/16 09:12:34;;;;;;;6.90;1.90;;;29.80;96.70;;;;;;4874206;29;20128;-82
2022/07/16 09:15:26;;;;;;;3.63;1.58;;;29.90;96.70;;;;;;4873813;29;20061;-82
2022/07/16 09:18:22;;;;;;;3.92;2.17;;;30.00;96.70;;;;;;4874450;29;20515;-83
2022/07/16 09:20:55;;;;;;;6.93;1.85;;;30.10;96.70;;;;;;4834309;29;20156;-83
2022/07/16 09:23:29;;;;;;;3.08;1.67;;;30.10;96.70;;;;;;4875408;29;20113;-81
2022/07/16 09:26:07;;;;;;;1.77;1.23;;;30.10;96.70;;;;;;4883339;29;20061;-79
2022/07/16 09:28:43;;;;;;;2.33;1.23;;;30.20;96.70;;;;;;4872920;29;20045;-81
2022/07/16 09:31:12;;;;;;;3.50;1.52;;;30.30;96.70;;;;;;4874043;29;20068;-82
2022/07/16 09:33:39;;;;;;;1.98;1.13;;;30.30;96.70;;;;;;4871115;29;20041;-82
2022/07/16 09:36:11;;;;;;;2.50;1.40;;;30.40;96.70;;;;;;4872701;29;20084;-81
2022/07/16 09:38:48;;;;;;;2.35;1.40;;;30.50;96.70;;;;;;4873406;29;20049;-82
2022/07/16 09:41:17;;;;;;;1.77;1.45;;;30.60;96.70;;;;;;4874635;29;20060;-82
2022/07/16 09:43:45;;;;;;;2.05;1.30;;;30.70;96.70;;;;;;4874781;29;20089;-82
2022/07/16 09:46:18;;;;;;;3.28;1.40;;;31.10;96.70;;;;;;4873350;29;20698;-81
2022/07/16 09:48:47;;;;;;;2.30;1.65;;;31.10;96.70;;;;;;4872087;29;20060;-82
2022/07/16 09:51:19;;;;;;;5.40;2.78;;;31.10;96.70;;;;;;4873691;29;20045;-80
2022/07/16 09:53:50;;;;;;;3.85;1.85;;;31.20;96.70;;;;;;4870380;29;20412;-78
2022/07/16 09:56:21;;;;;;;1.83;1.52;;;31.20;96.70;;;;;;4856364;29;20153;-81
2022/07/16 09:58:51;;;;;;;3.65;1.40;;;31.20;96.70;;;;;;4848997;29;20057;-78
2022/07/16 10:01:20;;;;;;;2.58;1.67;;;31.10;96.70;;;;;;4872215;29;20041;-79
2022/07/16 10:03:50;;;;;;;2.38;1.55;;;31.10;96.70;;;;;;4871398;29;20575;-77
2022/07/16 10:06:18;;;;;;;4.03;1.80;;;31.00;96.70;;;;;;4874780;29;20157;-82
2022/07/16 10:08:48;;;;;;;3.45;1.70;;;31.20;96.70;;;;;;4874220;29;20055;-81
2022/07/16 10:11:16;;;;;;;3.33;1.70;;;31.30;96.70;;;;;;4873457;29;20555;-79
2022/07/16 10:13:45;;;;;;;3.38;2.05;;;31.40;96.70;;;;;;4857898;29;20053;-81
2022/07/16 10:16:13;;;;;;;2.55;1.67;;;31.50;96.60;;;;;;4873319;29;20136;-81
2022/07/16 10:18:44;;;;;;;2.78;1.77;;;31.50;94.30;;;;;;4873088;29;20052;-80
2022/07/16 10:21:14;;;;;;;2.63;1.73;;;31.60;94.10;;;;;;4874620;29;20072;-80
2022/07/16 10:23:45;;;;;;;6.43;5.20;;;31.70;93.90;;;;;;4882887;29;20089;-83
2022/07/16 10:26:16;;;;;;;2.75;2.13;;;31.90;93.20;;;;;;4873172;29;20120;-79
2022/07/16 10:28:47;;;;;;;2.95;1.65;;;32.00;93.60;;;;;;4868156;29;20044;-80
2022/07/16 10:31:36;;;;;;;6.75;4.07;;;32.10;94.40;;;;;;4870616;29;20144;-82
2022/07/16 10:34:37;;;;;;;2.47;1.80;;;32.20;94.10;;;;;;4869718;29;20080;-80
2022/07/16 10:37:11;;;;;;;2.60;2.15;;;32.40;95.00;;;;;;4866462;29;20072;-79
2022/07/16 10:39:59;;;;;;;5.07;2.05;;;32.60;94.90;;;;;;4869742;29;20078;-79
2022/07/16 10:42:29;;;;;;;2.90;2.17;;;32.80;96.10;;;;;;4867543;29;20060;-79
2022/07/16 10:44:57;;;;;;;2.20;1.63;;;32.80;95.70;;;;;;4873859;29;20123;-79
2022/07/16 10:47:44;;;;;;;2.90;1.85;;;32.80;95.80;;;;;;4869937;29;20079;-79
2022/07/16 10:50:14;;;;;;;2.85;1.60;;;32.80;94.80;;;;;;4885365;29;20113;-79
2022/07/16 10:52:45;;;;;;;1.60;1.38;;;33.00;95.90;;;;;;4869947;29;20265;-79
2022/07/16 10:55:31;;;;;;;3.30;1.90;;;33.10;94.70;;;;;;4847670;29;20713;-79
2022/07/16 10:58:02;;;;;;;3.97;2.03;;;33.10;94.70;;;;;;4871557;29;20093;-80
2022/07/16 11:00:30;;;;;;;3.35;1.80;;;33.20;94.00;;;;;;4875877;29;20049;-84
2022/07/16 11:03:00;;;;;;;5.63;1.90;;;33.40;93.50;;;;;;4873975;29;20044;-85
2022/07/16 11:05:44;;;;;;;4.88;1.98;;;33.40;93.50;;;;;;4874377;29;20056;-84
2022/07/16 11:08:12;;;;;;;4.22;2.10;;;33.40;93.10;;;;;;4871720;29;20053;-82
2022/07/16 11:10:41;;;;;;;3.42;1.80;;;33.50;92.30;;;;;;4871326;29;20074;-82
2022/07/16 11:13:16;;;;;;;2.03;1.33;;;33.60;91.60;;;;;;4867241;29;20406;-81
2022/07/16 11:15:44;;;;;;;1.90;1.80;;;33.80;91.70;;;;;;4864544;29;20601;-79
2022/07/16 11:18:16;;;;;;;3.25;1.70;;;33.90;91.50;;;;;;4855334;29;20068;-78
2022/07/16 11:20:47;;;;;;;3.33;1.67;;;33.90;90.70;;;;;;4872089;29;20085;-82
2022/07/16 11:23:17;;;;;;;1.95;1.75;;;34.10;90.60;;;;;;4871313;29;20045;-81
2022/07/16 11:25:57;;;;;;;1.75;1.60;;;34.00;90.00;;;;;;4877880;29;20037;-81
2022/07/16 11:28:28;;;;;;;1.83;1.70;;;34.10;89.40;;;;;;4882531;29;20420;-77
2022/07/16 11:31:03;;;;;;;1.85;1.65;;;34.10;88.90;;;;;;4854364;29;20511;-80
2022/07/16 11:33:49;;;;;;;3.28;1.65;;;34.20;89.10;;;;;;4870235;29;20056;-79
2022/07/16 11:36:17;;;;;;;3.50;1.60;;;34.30;88.50;;;;;;4869646;29;20495;-80
2022/07/16 11:38:45;;;;;;;3.45;1.90;;;34.40;88.90;;;;;;4863645;29;20144;-80
2022/07/16 11:41:16;;;;;;;2.42;1.60;;;34.40;88.90;;;;;;4868783;29;20037;-80
2022/07/16 11:43:46;;;;;;;3.42;1.58;;;34.40;88.60;;;;;;4865903;29;20102;-80
2022/07/16 11:46:24;;;;;;;2.70;2.10;;;34.50;88.30;;;;;;4872991;29;20072;-82
2022/07/16 11:48:53;;;;;;;2.47;2.10;;;34.50;88.20;;;;;;4880266;29;20067;-78
2022/07/16 11:51:22;;;;;;;1.75;1.65;;;34.50;88.90;;;;;;4869248;29;20045;-79
2022/07/16 11:53:51;;;;;;;2.55;1.80;;;34.80;88.40;;;;;;4869417;29;20056;-80
2022/07/16 11:56:31;;;;;;;2.38;1.70;;;34.80;88.00;;;;;;4868773;29;20053;-79
2022/07/16 11:59:01;;;;;;;1.83;1.70;;;34.90;88.10;;;;;;4885037;29;20406;-79
2022/07/16 12:01:37;;;;;;;3.67;1.83;;;35.10;88.10;;;;;;4874696;29;20515;-78
2022/07/16 12:04:06;;;;;;;1.75;1.63;;;35.20;87.90;;;;;;4873322;29;20053;-77
2022/07/16 12:06:35;;;;;;;2.00;1.90;;;35.30;87.30;;;;;;4874815;29;20041;-79
2022/07/16 12:09:04;;;;;;;1.88;1.67;;;35.20;87.80;;;;;;4870696;29;20064;-78
2022/07/16 12:11:35;;;;;;;2.53;1.65;;;35.00;88.20;;;;;;4866335;29;20064;-78
2022/07/16 12:14:05;;;;;;;2.28;1.88;;;35.10;88.60;;;;;;4872834;29;20056;-80
2022/07/16 12:16:33;;;;;;;2.80;1.67;;;35.20;88.10;;;;;;4858551;29;20045;-82
2022/07/16 12:19:04;;;;;;;2.67;1.92;;;35.20;88.30;;;;;;4859523;29;20147;-80
2022/07/16 12:21:33;;;;;;;2.78;1.98;;;35.30;87.80;;;;;;4875414;29;20049;-81
2022/07/16 12:24:02;;;;;;;1.95;1.70;;;35.50;87.30;;;;;;4876729;29;20056;-82
2022/07/16 12:26:32;;;;;;;3.33;2.00;;;35.40;87.00;;;;;;4876455;29;20052;-83
2022/07/16 12:29:04;;;;;;;1.67;1.58;;;35.40;86.90;;;;;;4888346;29;20556;-83
2022/07/16 12:31:35;;;;;;;4.97;2.10;;;35.40;88.00;;;;;;4876135;29;20100;-78
2022/07/16 12:34:04;;;;;;;2.33;1.73;;;35.50;88.40;;;;;;4872162;29;20057;-80
2022/07/16 12:36:34;;;;;;;4.60;1.80;;;35.50;89.10;;;;;;4872000;29;20148;-79
2022/07/16 12:39:05;;;;;;;6.90;2.50;;;35.50;89.10;;;;;;4888076;29;20459;-79
2022/07/16 12:41:34;;;;;;;2.92;1.85;;;35.60;89.30;;;;;;4870839;29;20052;-79
2022/07/16 12:44:04;;;;;;;2.30;1.80;;;35.70;89.50;;;;;;4874078;29;20513;-79
2022/07/16 12:46:37;;;;;;;5.55;2.20;;;35.80;89.10;;;;;;4872969;29;20045;-78
2022/07/16 12:49:06;;;;;;;4.72;2.10;;;35.70;89.20;;;;;;4872331;29;20149;-79
2022/07/16 12:51:36;;;;;;;2.60;2.10;;;35.60;89.70;;;;;;4882626;29;20045;-79
2022/07/16 12:54:06;;;;;;;4.50;2.00;;;35.70;89.50;;;;;;4887734;29;20052;-79
2022/07/16 12:59:23;;;;;;;4.07;2.35;;;35.70;88.70;;;;;;4872408;29;20136;-80
2022/07/16 13:01:53;;;;;;;3.13;2.28;;;35.80;88.30;;;;;;4872885;29;20048;-80
2022/07/16 13:04:22;;;;;;;3.70;2.22;;;35.90;88.40;;;;;;4859943;29;20423;-80
2022/07/16 13:06:51;;;;;;;2.03;1.75;;;36.00;88.10;;;;;;4871534;29;20036;-80
2022/07/16 13:09:19;;;;;;;4.03;1.90;;;36.00;88.00;;;;;;4872103;29;20057;-79
2022/07/16 13:11:47;;;;;;;2.00;1.88;;;36.10;88.30;;;;;;4871487;29;20049;-79